createdAt,value
2022-08-12T00:00:00.636Z,20.3
2022-08-12T00:01:09.272Z,20.3
2022-08-12T00:02:02.828Z,20.3
2022-08-12T00:03:01.023Z,20.3
2022-08-12T00:04:00.715Z,20.3
2022-08-12T00:05:00.812Z,20.3
2022-08-12T00:06:06.050Z,20.2
2022-08-12T00:07:01.502Z,20.2
2022-08-12T00:08:00.712Z,20.3
2022-08-12T00:09:00.342Z,20.3
2022-08-12T00:10:00.077Z,20.3
2022-08-12T00:11:09.764Z,20.3
2022-08-12T00:12:01.221Z,20.3
2022-08-12T00:13:01.026Z,20.3
2022-08-12T00:14:00.699Z,20.3
2022-08-12T00:15:00.453Z,20.4
2022-08-12T00:16:00.259Z,20.4
2022-08-12T00:17:00.281Z,20.4
2022-08-12T00:18:00.645Z,20.3
2022-08-12T00:19:00.310Z,20.3
2022-08-12T00:20:00.028Z,20.3
2022-08-12T00:20:59.696Z,20.3
2022-08-12T00:22:01.361Z,20.3
2022-08-12T00:23:01.015Z,20.3
2022-08-12T00:24:00.667Z,20.3
2022-08-12T00:25:00.365Z,20.3
2022-08-12T00:26:20.539Z,20.3
2022-08-12T00:27:01.356Z,20.2
2022-08-12T00:28:01.454Z,20.3
2022-08-12T00:29:01.113Z,20.3
2022-08-12T00:30:00.762Z,20.3
2022-08-12T00:31:00.431Z,20.3
2022-08-12T00:32:00.973Z,20.2
2022-08-12T00:33:01.302Z,20.2
2022-08-12T00:34:01.344Z,20.1
2022-08-12T00:35:00.693Z,20.1
2022-08-12T00:36:01.460Z,20.1
2022-08-12T00:37:07.253Z,20.1
2022-08-12T00:38:00.756Z,20.1
2022-08-12T00:39:00.470Z,20.1
2022-08-12T00:40:00.176Z,20
2022-08-12T00:40:59.860Z,20
2022-08-12T00:42:01.637Z,19.9
2022-08-12T00:43:01.406Z,19.9
2022-08-12T00:44:01.064Z,19.8
2022-08-12T00:45:00.799Z,19.8
2022-08-12T00:46:00.609Z,19.8
2022-08-12T00:47:00.252Z,19.7
2022-08-12T00:48:00.081Z,19.7
2022-08-12T00:48:59.800Z,19.7
2022-08-12T00:50:01.523Z,19.6
2022-08-12T00:51:01.238Z,19.6
2022-08-12T00:52:01.275Z,19.6
2022-08-12T00:53:00.916Z,19.6
2022-08-12T00:54:00.713Z,19.6
2022-08-12T00:55:00.470Z,19.6
2022-08-12T00:56:00.162Z,19.7
2022-08-12T00:56:59.825Z,19.7
2022-08-12T00:58:01.504Z,19.8
2022-08-12T00:59:01.160Z,19.8
2022-08-12T01:00:00.915Z,19.8
2022-08-12T01:01:00.696Z,19.8
2022-08-12T01:02:10.576Z,19.7
2022-08-12T01:03:00.613Z,19.7
2022-08-12T01:04:00.341Z,19.7
2022-08-12T01:05:00.012Z,19.6
2022-08-12T01:05:59.674Z,19.6
2022-08-12T01:07:01.353Z,19.6
2022-08-12T01:08:01.058Z,19.6
2022-08-12T01:09:01.079Z,19.6
2022-08-12T01:10:01.017Z,19.6
2022-08-12T01:11:00.665Z,19.6
2022-08-12T01:12:00.463Z,19.5
2022-08-12T01:13:07.290Z,19.5
2022-08-12T01:14:01.628Z,19.5
2022-08-12T01:15:01.380Z,19.5
2022-08-12T01:16:01.195Z,19.5
2022-08-12T01:17:01.014Z,19.5
2022-08-12T01:18:00.830Z,19.5
2022-08-12T01:19:01.264Z,19.6
2022-08-12T01:20:00.891Z,19.6
2022-08-12T01:21:00.750Z,19.6
2022-08-12T01:22:01.558Z,19.6
2022-08-12T01:23:01.295Z,19.6
2022-08-12T01:24:29.636Z,19.6
2022-08-12T01:25:00.974Z,19.6
2022-08-12T01:26:01.470Z,19.5
2022-08-12T01:27:01.138Z,19.5
2022-08-12T01:28:00.829Z,19.5
2022-08-12T01:29:00.461Z,19.4
2022-08-12T01:30:00.174Z,19.4
2022-08-12T01:30:59.877Z,19.3
2022-08-12T01:31:59.602Z,19.3
2022-08-12T01:33:01.433Z,19.3
2022-08-12T01:34:01.139Z,19.3
2022-08-12T01:35:00.794Z,19.3
2022-08-12T01:36:07.755Z,19.3
2022-08-12T01:37:02.262Z,19.2
2022-08-12T01:38:00.985Z,19.2
2022-08-12T01:39:01.292Z,19.1
2022-08-12T01:40:35.492Z,19.1
2022-08-12T01:41:01.063Z,19.1
2022-08-12T01:42:01.313Z,19.1
2022-08-12T01:43:00.860Z,19.1
2022-08-12T01:44:00.528Z,19.1
2022-08-12T01:45:00.203Z,19.1
2022-08-12T01:45:59.889Z,19.1
2022-08-12T01:47:05.340Z,19.1
2022-08-12T01:48:00.762Z,19.1
2022-08-12T01:49:01.323Z,19.1
2022-08-12T01:50:00.980Z,19.1
2022-08-12T01:51:01.418Z,19
2022-08-12T01:52:21.657Z,19
2022-08-12T01:53:01.253Z,19
2022-08-12T01:54:00.961Z,18.9
2022-08-12T01:55:00.668Z,18.9
2022-08-12T01:56:00.360Z,18.8
2022-08-12T01:57:11.867Z,18.9
2022-08-12T01:58:01.562Z,18.8
2022-08-12T01:59:00.529Z,18.8
2022-08-12T02:00:00.218Z,18.8
2022-08-12T02:01:00.042Z,18.8
2022-08-12T02:02:13.148Z,18.8
2022-08-12T02:03:01.007Z,18.8
2022-08-12T02:04:00.678Z,18.9
2022-08-12T02:05:00.329Z,18.9
2022-08-12T02:06:00.015Z,18.9
2022-08-12T02:07:14.886Z,19
2022-08-12T02:08:01.710Z,19
2022-08-12T02:09:00.687Z,19
2022-08-12T02:10:01.682Z,19
2022-08-12T02:11:02.006Z,19
2022-08-12T02:12:15.635Z,19
2022-08-12T02:13:01.076Z,19
2022-08-12T02:14:00.889Z,19
2022-08-12T02:15:00.574Z,18.9
2022-08-12T02:16:00.239Z,18.9
2022-08-12T02:17:00.064Z,18.8
2022-08-12T02:17:59.901Z,18.8
2022-08-12T02:18:59.575Z,18.8
2022-08-12T02:20:01.330Z,18.7
2022-08-12T02:21:01.040Z,18.6
2022-08-12T02:22:00.735Z,18.6
2022-08-12T02:23:00.841Z,18.5
2022-08-12T02:24:00.626Z,18.5
2022-08-12T02:25:00.351Z,18.5
2022-08-12T02:26:00.028Z,18.4
2022-08-12T02:26:59.821Z,18.4
2022-08-12T02:28:01.512Z,18.4
2022-08-12T02:29:01.497Z,18.4
2022-08-12T02:30:00.711Z,18.4
2022-08-12T02:31:00.901Z,18.3
2022-08-12T02:32:00.904Z,18.3
2022-08-12T02:33:00.589Z,18.3
2022-08-12T02:34:00.308Z,18.4
2022-08-12T02:35:00.006Z,18.4
2022-08-12T02:36:00.827Z,18.4
2022-08-12T02:37:03.504Z,18.4
2022-08-12T02:38:00.776Z,18.4
2022-08-12T02:39:00.473Z,18.5
2022-08-12T02:40:00.476Z,18.5
2022-08-12T02:41:00.345Z,18.5
2022-08-12T02:42:00.051Z,18.5
2022-08-12T02:42:59.849Z,18.5
2022-08-12T02:44:01.614Z,18.5
2022-08-12T02:45:01.285Z,18.6
2022-08-12T02:46:01.048Z,18.6
2022-08-12T02:47:00.810Z,18.5
2022-08-12T02:48:01.401Z,18.5
2022-08-12T02:49:01.163Z,18.5
2022-08-12T02:50:00.929Z,18.6
2022-08-12T02:51:00.845Z,18.5
2022-08-12T02:52:00.524Z,18.5
2022-08-12T02:53:00.179Z,18.5
2022-08-12T02:54:04.283Z,18.5
2022-08-12T02:55:01.784Z,18.4
2022-08-12T02:56:01.478Z,18.3
2022-08-12T02:57:00.837Z,18.1
2022-08-12T02:58:00.492Z,18.1
2022-08-12T02:59:01.591Z,18
2022-08-12T03:00:01.273Z,18
2022-08-12T03:01:01.088Z,18
2022-08-12T03:02:00.969Z,18
2022-08-12T03:03:00.734Z,18
2022-08-12T03:04:00.403Z,18
2022-08-12T03:05:00.032Z,18.1
2022-08-12T03:05:59.690Z,18.1
2022-08-12T03:07:01.462Z,18
2022-08-12T03:08:01.473Z,18
2022-08-12T03:09:01.342Z,18
2022-08-12T03:10:04.281Z,18
2022-08-12T03:11:01.289Z,17.9
2022-08-12T03:12:01.373Z,17.9
2022-08-12T03:13:01.483Z,17.9
2022-08-12T03:14:00.656Z,17.8
2022-08-12T03:15:00.343Z,17.8
2022-08-12T03:16:00.009Z,17.8
2022-08-12T03:16:59.769Z,17.8
2022-08-12T03:18:26.137Z,17.8
2022-08-12T03:19:01.513Z,17.8
2022-08-12T03:20:10.905Z,17.7
2022-08-12T03:21:01.202Z,17.6
2022-08-12T03:22:09.399Z,17.6
2022-08-12T03:23:02.333Z,17.6
2022-08-12T03:24:02.428Z,17.6
2022-08-12T03:25:01.937Z,17.6
2022-08-12T03:26:01.266Z,17.6
2022-08-12T03:27:00.836Z,17.6
2022-08-12T03:28:06.058Z,17.5
2022-08-12T03:29:01.583Z,17.5
2022-08-12T03:30:00.728Z,17.5
2022-08-12T03:31:00.484Z,17.5
2022-08-12T03:32:00.184Z,17.5
2022-08-12T03:33:05.960Z,17.5
2022-08-12T03:34:03.092Z,17.5
2022-08-12T03:35:00.695Z,17.5
2022-08-12T03:36:00.521Z,17.5
2022-08-12T03:37:00.228Z,17.3
2022-08-12T03:38:08.804Z,17.3
2022-08-12T03:39:01.766Z,17.3
2022-08-12T03:40:01.367Z,17.3
2022-08-12T03:41:01.150Z,17.3
2022-08-12T03:42:00.867Z,17.3
2022-08-12T03:43:11.991Z,17.3
2022-08-12T03:44:00.517Z,17.2
2022-08-12T03:45:00.271Z,17.1
2022-08-12T03:46:00.073Z,17.1
2022-08-12T03:46:59.917Z,17.1
2022-08-12T03:48:19.049Z,17
2022-08-12T03:49:00.610Z,17
2022-08-12T03:50:00.249Z,17
2022-08-12T03:50:59.892Z,17
2022-08-12T03:52:00.140Z,17
2022-08-12T03:52:59.905Z,17
2022-08-12T03:53:59.641Z,17
2022-08-12T03:55:01.365Z,16.9
2022-08-12T03:56:01.143Z,16.9
2022-08-12T03:57:00.957Z,16.9
2022-08-12T03:58:00.656Z,16.9
2022-08-12T03:59:00.392Z,16.8
2022-08-12T04:00:00.234Z,16.8
2022-08-12T04:01:00.130Z,16.8
2022-08-12T04:01:59.920Z,16.8
2022-08-12T04:02:59.654Z,16.8
2022-08-12T04:04:01.344Z,16.9
2022-08-12T04:05:01.075Z,17
2022-08-12T04:06:01.066Z,17
2022-08-12T04:07:01.081Z,17
2022-08-12T04:08:01.088Z,17.1
2022-08-12T04:09:00.851Z,17.1
2022-08-12T04:10:00.617Z,17.1
2022-08-12T04:11:00.327Z,17.1
2022-08-12T04:12:00.100Z,17.1
2022-08-12T04:12:59.828Z,17.1
2022-08-12T04:14:01.788Z,17
2022-08-12T04:15:01.791Z,17.1
2022-08-12T04:16:01.477Z,17.1
2022-08-12T04:17:01.167Z,17.1
2022-08-12T04:18:06.540Z,17.1
2022-08-12T04:19:00.913Z,17.1
2022-08-12T04:20:01.279Z,17.1
2022-08-12T04:21:00.985Z,17.1
2022-08-12T04:22:03.326Z,17.2
2022-08-12T04:23:01.007Z,17.3
2022-08-12T04:24:00.667Z,17.3
2022-08-12T04:25:00.420Z,17.4
2022-08-12T04:26:00.269Z,17.5
2022-08-12T04:26:59.908Z,17.6
2022-08-12T04:28:13.227Z,17.6
2022-08-12T04:29:00.645Z,17.6
2022-08-12T04:30:30.098Z,17.6
2022-08-12T04:31:01.588Z,17.7
2022-08-12T04:32:01.590Z,17.8
2022-08-12T04:33:01.091Z,17.8
2022-08-12T04:34:00.798Z,17.9
2022-08-12T04:35:00.792Z,18
2022-08-12T04:36:00.429Z,18
2022-08-12T04:37:00.099Z,18
2022-08-12T04:38:00.979Z,18
2022-08-12T04:39:00.823Z,18
2022-08-12T04:40:00.673Z,18
2022-08-12T04:41:00.344Z,18
2022-08-12T04:42:00.030Z,18
2022-08-12T04:42:59.734Z,18
2022-08-12T04:44:02.589Z,18
2022-08-12T04:45:01.579Z,18.1
2022-08-12T04:46:00.794Z,18.1
2022-08-12T04:47:00.432Z,18.1
2022-08-12T04:48:00.205Z,18.1
2022-08-12T04:48:59.972Z,18.1
2022-08-12T04:49:59.645Z,18.1
2022-08-12T04:51:01.332Z,18.2
2022-08-12T04:52:00.920Z,18.1
2022-08-12T04:53:00.606Z,18.1
2022-08-12T04:54:01.153Z,18.2
2022-08-12T04:55:00.927Z,18.3
2022-08-12T04:56:01.829Z,18.3
2022-08-12T04:57:04.013Z,18.3
2022-08-12T04:58:01.358Z,18.4
2022-08-12T04:59:00.849Z,18.4
2022-08-12T05:00:00.531Z,18.3
2022-08-12T05:01:00.372Z,18.3
2022-08-12T05:02:00.438Z,18.3
2022-08-12T05:03:00.250Z,18.3
2022-08-12T05:04:00.196Z,18.3
2022-08-12T05:05:00.948Z,18.3
2022-08-12T05:06:01.015Z,18.4
2022-08-12T05:07:00.826Z,18.5
2022-08-12T05:08:00.503Z,18.5
2022-08-12T05:09:00.301Z,18.6
2022-08-12T05:10:02.439Z,18.8
2022-08-12T05:11:01.147Z,18.9
2022-08-12T05:12:00.686Z,19
2022-08-12T05:13:00.699Z,19.2
2022-08-12T05:14:02.344Z,19.3
2022-08-12T05:15:01.470Z,19.4
2022-08-12T05:16:05.097Z,19.5
2022-08-12T05:17:01.552Z,19.6
2022-08-12T05:18:02.251Z,19.7
2022-08-12T05:19:06.245Z,19.8
2022-08-12T05:20:00.989Z,19.9
2022-08-12T05:21:02.619Z,20
2022-08-12T05:22:01.005Z,20.1
2022-08-12T05:23:08.553Z,20.3
2022-08-12T05:24:10.588Z,20.4
2022-08-12T05:25:01.693Z,20.6
2022-08-12T05:26:00.703Z,20.8
2022-08-12T05:27:00.430Z,21
2022-08-12T05:28:00.320Z,21.3
2022-08-12T05:30:07.353Z,21.5
2022-08-12T05:30:07.972Z,21.4
2022-08-12T05:31:01.549Z,21.6
2022-08-12T05:32:00.990Z,21.6
2022-08-12T05:33:00.656Z,21.6
2022-08-12T05:34:00.375Z,21.8
2022-08-12T05:35:00.076Z,22
2022-08-12T05:35:59.737Z,22.1
2022-08-12T05:37:01.535Z,22.2
2022-08-12T05:38:00.807Z,22.3
2022-08-12T05:39:00.500Z,22.4
2022-08-12T05:40:00.322Z,22.4
2022-08-12T05:41:00.733Z,22.5
2022-08-12T05:42:00.430Z,22.6
2022-08-12T05:43:00.105Z,22.9
2022-08-12T05:43:59.904Z,23.2
2022-08-12T05:44:59.565Z,23.4
2022-08-12T05:46:01.435Z,23.6
2022-08-12T05:47:01.053Z,23.8
2022-08-12T05:48:00.755Z,23.9
2022-08-12T05:49:00.439Z,24
2022-08-12T05:50:00.768Z,24
2022-08-12T05:51:00.456Z,24
2022-08-12T05:52:00.252Z,24
2022-08-12T05:52:59.917Z,24
2022-08-12T05:54:00.107Z,24.1
2022-08-12T05:54:59.784Z,24.3
2022-08-12T05:56:01.555Z,24.5
2022-08-12T05:57:01.240Z,24.5
2022-08-12T05:58:00.878Z,24.4
2022-08-12T05:59:00.891Z,24.4
2022-08-12T06:00:00.668Z,24.5
2022-08-12T06:01:00.497Z,24.7
2022-08-12T06:02:11.506Z,24.9
2022-08-12T06:03:02.442Z,24.9
2022-08-12T06:04:00.982Z,25
2022-08-12T06:05:00.682Z,25.1
2022-08-12T06:06:00.382Z,25.3
2022-08-12T06:07:00.029Z,25.4
2022-08-12T06:08:03.124Z,25.5
2022-08-12T06:09:00.787Z,25.6
2022-08-12T06:10:00.548Z,25.6
2022-08-12T06:11:00.324Z,25.5
2022-08-12T06:12:05.795Z,25.5
2022-08-12T06:13:01.110Z,25.3
2022-08-12T06:14:00.931Z,25.1
2022-08-12T06:15:01.003Z,25.1
2022-08-12T06:16:00.747Z,25.3
2022-08-12T06:17:00.498Z,25.5
2022-08-12T06:18:00.255Z,25.8
2022-08-12T06:18:59.942Z,26
2022-08-12T06:20:27.695Z,26.1
2022-08-12T06:21:02.086Z,26.1
2022-08-12T06:22:01.334Z,26
2022-08-12T06:23:00.894Z,25.8
2022-08-12T06:24:00.578Z,25.8
2022-08-12T06:25:00.286Z,25.6
2022-08-12T06:25:59.995Z,25.1
2022-08-12T06:26:59.696Z,24.6
2022-08-12T06:28:07.206Z,24.1
2022-08-12T06:29:01.431Z,23.6
2022-08-12T06:30:09.525Z,23.2
2022-08-12T06:32:00.837Z,22.5
2022-08-12T06:33:18.521Z,22.3
2022-08-12T06:35:22.473Z,21.9
2022-08-12T06:35:23.400Z,22.1
2022-08-12T06:36:01.335Z,21.7
2022-08-12T06:37:01.017Z,21.5
2022-08-12T06:38:00.815Z,21.5
2022-08-12T06:39:00.458Z,21.5
2022-08-12T06:40:03.696Z,21.5
2022-08-12T06:41:01.334Z,21.5
2022-08-12T06:42:30.812Z,21.5
2022-08-12T06:43:01.129Z,21.6
2022-08-12T06:44:07.085Z,21.5
2022-08-12T06:45:00.801Z,21.6
2022-08-12T06:46:00.571Z,21.6
2022-08-12T06:47:00.656Z,21.6
2022-08-12T06:48:00.344Z,21.7
2022-08-12T06:49:00.035Z,21.8
2022-08-12T06:49:59.842Z,21.8
2022-08-12T06:51:01.604Z,21.9
2022-08-12T06:52:02.007Z,21.9
2022-08-12T06:53:01.297Z,21.9
2022-08-12T06:54:01.003Z,21.9
2022-08-12T06:55:01.522Z,22
2022-08-12T06:56:00.707Z,22
2022-08-12T06:57:04.362Z,22
2022-08-12T06:58:08.207Z,22
2022-08-12T06:59:01.438Z,21.9
2022-08-12T07:00:01.139Z,21.8
2022-08-12T07:01:01.206Z,21.8
2022-08-12T07:02:00.857Z,21.8
2022-08-12T07:03:00.523Z,21.8
2022-08-12T07:04:14.342Z,21.8
2022-08-12T07:05:02.193Z,21.8
2022-08-12T07:06:01.330Z,21.8
2022-08-12T07:07:01.071Z,21.8
2022-08-12T07:08:00.787Z,21.8
2022-08-12T07:09:01.746Z,21.8
2022-08-12T07:10:08.189Z,21.9
2022-08-12T07:11:01.422Z,22
2022-08-12T07:12:01.113Z,22
2022-08-12T07:13:00.797Z,22
2022-08-12T07:14:02.380Z,22
2022-08-12T07:15:06.541Z,22
2022-08-12T07:16:00.747Z,22
2022-08-12T07:17:00.523Z,22
2022-08-12T07:18:00.496Z,22
2022-08-12T07:19:00.668Z,22
2022-08-12T07:20:07.607Z,21.9
2022-08-12T07:21:01.384Z,21.9
2022-08-12T07:22:02.347Z,21.9
2022-08-12T07:23:01.081Z,21.9
2022-08-12T07:24:00.733Z,21.9
2022-08-12T07:25:10.961Z,21.9
2022-08-12T07:26:00.972Z,21.9
2022-08-12T07:27:00.761Z,21.8
2022-08-12T07:28:00.497Z,21.8
2022-08-12T07:29:01.430Z,21.9
2022-08-12T07:30:14.969Z,21.9
2022-08-12T07:31:01.467Z,21.9
2022-08-12T07:32:01.676Z,21.9
2022-08-12T07:33:01.863Z,21.9
2022-08-12T07:34:01.193Z,21.9
2022-08-12T07:35:00.749Z,21.9
2022-08-12T07:36:00.423Z,22
2022-08-12T07:37:00.143Z,22
2022-08-12T07:38:01.377Z,22
2022-08-12T07:39:00.828Z,22
2022-08-12T07:40:01.249Z,22
2022-08-12T07:41:00.605Z,22.1
2022-08-12T07:42:00.290Z,22.2
2022-08-12T07:42:59.923Z,22.3
2022-08-12T07:44:04.382Z,22.3
2022-08-12T07:45:00.614Z,22.3
2022-08-12T07:46:00.306Z,22.3
2022-08-12T07:47:00.238Z,22.3
2022-08-12T07:48:00.015Z,22.3
2022-08-12T07:48:59.923Z,22.3
2022-08-12T07:50:04.388Z,22.4
2022-08-12T07:51:00.623Z,22.5
2022-08-12T07:52:00.251Z,22.5
2022-08-12T07:52:59.947Z,22.6
2022-08-12T07:54:00.880Z,22.6
2022-08-12T07:55:00.753Z,22.6
2022-08-12T07:56:00.407Z,22.6
2022-08-12T07:57:00.045Z,22.6
2022-08-12T07:57:59.711Z,22.7
2022-08-12T07:59:01.758Z,22.8
2022-08-12T08:00:01.436Z,22.8
2022-08-12T08:01:01.347Z,22.8
2022-08-12T08:02:01.244Z,23
2022-08-12T08:03:01.045Z,23
2022-08-12T08:04:00.818Z,23.1
2022-08-12T08:05:00.613Z,23.1
2022-08-12T08:06:00.668Z,23.1
2022-08-12T08:07:00.350Z,23.1
2022-08-12T08:08:00.048Z,23.2
2022-08-12T08:08:59.739Z,23.2
2022-08-12T08:10:01.449Z,23.2
2022-08-12T08:11:04.253Z,23.2
2022-08-12T08:12:00.895Z,23.2
2022-08-12T08:13:00.586Z,23.3
2022-08-12T08:14:00.199Z,23.3
2022-08-12T08:15:00.008Z,23.3
2022-08-12T08:16:03.972Z,23.3
2022-08-12T08:17:01.338Z,23.3
2022-08-12T08:18:00.955Z,23.3
2022-08-12T08:19:00.732Z,23.3
2022-08-12T08:20:03.182Z,23.4
2022-08-12T08:21:01.500Z,23.4
2022-08-12T08:22:01.174Z,23.5
2022-08-12T08:23:00.932Z,23.5
2022-08-12T08:24:05.055Z,23.5
2022-08-12T08:25:00.716Z,23.5
2022-08-12T08:26:01.433Z,23.4
2022-08-12T08:27:01.095Z,23.4
2022-08-12T08:28:00.767Z,23.4
2022-08-12T08:29:00.485Z,23.5
2022-08-12T08:30:00.214Z,23.6
2022-08-12T08:30:59.991Z,23.5
2022-08-12T08:31:59.812Z,23.6
2022-08-12T08:33:01.538Z,23.6
2022-08-12T08:34:27.517Z,23.6
2022-08-12T08:35:01.266Z,23.6
2022-08-12T08:36:02.206Z,23.6
2022-08-12T08:37:04.041Z,23.6
2022-08-12T08:38:00.745Z,23.6
2022-08-12T08:39:01.301Z,23.6
2022-08-12T08:40:01.046Z,23.6
2022-08-12T08:41:01.306Z,23.6
2022-08-12T08:42:18.740Z,23.6
2022-08-12T08:43:00.943Z,23.6
2022-08-12T08:44:00.687Z,23.7
2022-08-12T08:45:00.357Z,23.8
2022-08-12T08:46:04.765Z,23.8
2022-08-12T08:47:01.364Z,24
2022-08-12T08:48:01.193Z,24
2022-08-12T08:49:00.915Z,24.1
2022-08-12T08:50:01.055Z,24.1
2022-08-12T08:51:07.258Z,24.1
2022-08-12T08:52:01.362Z,24
2022-08-12T08:53:00.959Z,24
2022-08-12T08:54:00.644Z,24
2022-08-12T08:55:00.405Z,24
2022-08-12T08:56:09.771Z,24
2022-08-12T08:57:01.377Z,23.9
2022-08-12T08:58:01.094Z,24
2022-08-12T08:59:00.806Z,23.9
2022-08-12T09:00:00.520Z,23.9
2022-08-12T09:01:09.762Z,23.8
2022-08-12T09:02:01.492Z,23.8
2022-08-12T09:03:01.402Z,23.8
2022-08-12T09:05:12.212Z,23.9
2022-08-12T09:05:13.646Z,23.8
2022-08-12T09:06:16.999Z,23.9
2022-08-12T09:07:17.803Z,24
2022-08-12T09:09:00.758Z,24
2022-08-12T09:10:02.714Z,24
2022-08-12T09:12:10.789Z,24.1
2022-08-12T09:12:11.606Z,24.1
2022-08-12T09:13:01.919Z,24.1
2022-08-12T09:15:00.760Z,24.1
2022-08-12T09:16:00.815Z,24.1
2022-08-12T09:17:00.731Z,24.1
2022-08-12T09:18:00.760Z,24.1
2022-08-12T09:19:01.351Z,24.2
2022-08-12T09:20:01.752Z,24.2
2022-08-12T09:21:02.025Z,24.3
2022-08-12T09:22:00.690Z,24.4
2022-08-12T09:23:00.654Z,24.5
2022-08-12T09:25:06.179Z,24.6
2022-08-12T09:26:04.290Z,24.6
2022-08-12T09:27:00.993Z,24.6
2022-08-12T09:28:05.260Z,24.6
2022-08-12T09:29:01.420Z,24.6
2022-08-12T09:30:12.514Z,24.6
2022-08-12T09:31:00.712Z,24.6
2022-08-12T09:32:03.245Z,24.6
2022-08-12T09:33:14.304Z,24.6
2022-08-12T09:34:29.235Z,24.7
2022-08-12T09:35:01.359Z,24.8
2022-08-12T09:36:04.789Z,24.8
2022-08-12T09:37:02.612Z,24.8
2022-08-12T09:38:01.261Z,24.9
2022-08-12T09:39:01.275Z,25
2022-08-12T09:40:57.865Z,24.9
2022-08-12T09:42:09.073Z,24.9
2022-08-12T09:42:33.915Z,24.8
2022-08-12T09:43:15.315Z,24.8
2022-08-12T09:44:01.591Z,24.8
2022-08-12T09:45:17.904Z,24.8
2022-08-12T09:46:11.586Z,24.8
2022-08-12T09:47:01.285Z,24.7
2022-08-12T09:48:01.042Z,24.7
2022-08-12T09:49:01.263Z,24.8
2022-08-12T09:50:01.558Z,24.8
2022-08-12T09:51:01.675Z,25
2022-08-12T09:52:01.323Z,25
2022-08-12T09:53:04.128Z,25.1
2022-08-12T09:54:08.671Z,25.1
2022-08-12T09:55:03.615Z,25.1
2022-08-12T09:56:39.902Z,25
2022-08-12T09:58:05.715Z,25
2022-08-12T09:58:07.431Z,24.9
2022-08-12T09:59:02.156Z,24.9
2022-08-12T10:00:16.740Z,24.8
2022-08-12T10:01:00.847Z,24.9
2022-08-12T10:02:44.372Z,24.9
2022-08-12T10:03:02.088Z,25
2022-08-12T10:04:03.977Z,25.1
2022-08-12T10:05:01.138Z,25.1
2022-08-12T10:06:26.775Z,25.2
2022-08-12T10:07:01.086Z,25.3
2022-08-12T10:08:01.270Z,25.4
2022-08-12T10:09:01.348Z,25.5
2022-08-12T10:10:01.196Z,25.5
2022-08-12T10:11:00.970Z,25.5
2022-08-12T10:12:12.143Z,25.3
2022-08-12T10:13:07.769Z,25.3
2022-08-12T10:14:01.363Z,25.3
2022-08-12T10:15:01.089Z,25.2
2022-08-12T10:16:05.263Z,25.2
2022-08-12T10:17:01.276Z,25.1
2022-08-12T10:18:06.907Z,25.1
2022-08-12T10:19:00.918Z,25.1
2022-08-12T10:20:01.375Z,25.1
2022-08-12T10:21:00.602Z,25.1
2022-08-12T10:22:00.234Z,25.2
2022-08-12T10:23:00.018Z,25.3
2022-08-12T10:23:59.781Z,25.4
2022-08-12T10:25:01.479Z,25.5
2022-08-12T10:26:36.052Z,25.5
2022-08-12T10:27:01.458Z,25.5
2022-08-12T10:28:04.490Z,25.5
2022-08-12T10:29:02.716Z,25.5
2022-08-12T10:30:39.898Z,25.5
2022-08-12T10:31:01.736Z,25.5
2022-08-12T10:32:21.649Z,25.4
2022-08-12T10:33:02.621Z,25.3
2022-08-12T10:34:05.449Z,25.3
2022-08-12T10:35:00.607Z,25.4
2022-08-12T10:36:00.451Z,25.4
2022-08-12T10:37:22.623Z,25.4
2022-08-12T10:38:38.951Z,25.4
2022-08-12T10:39:01.403Z,25.3
2022-08-12T10:40:08.327Z,25.3
2022-08-12T10:41:01.215Z,25.3
2022-08-12T10:42:06.314Z,25.3
2022-08-12T10:43:01.018Z,25.1
2022-08-12T10:44:01.538Z,25.1
2022-08-12T10:45:00.772Z,25.1
2022-08-12T10:46:00.440Z,25.1
2022-08-12T10:48:01.280Z,25.1
2022-08-12T10:48:21.343Z,25.1
2022-08-12T10:49:06.687Z,25.1
2022-08-12T10:50:32.598Z,25.2
2022-08-12T10:51:03.658Z,25.2
2022-08-12T10:52:34.202Z,25.3
2022-08-12T10:53:00.984Z,25.3
2022-08-12T10:54:02.080Z,25.3
2022-08-12T10:55:00.701Z,25.5
2022-08-12T10:56:02.172Z,25.5
2022-08-12T10:57:18.557Z,25.6
2022-08-12T10:58:15.665Z,25.6
2022-08-12T10:59:00.796Z,25.6
2022-08-12T11:00:34.945Z,25.6
2022-08-12T11:01:49.598Z,25.6
2022-08-12T11:04:24.121Z,25.6
2022-08-12T11:04:24.439Z,25.7
2022-08-12T11:04:35.932Z,25.7
2022-08-12T11:07:06.106Z,25.8
2022-08-12T11:07:06.998Z,25.8
2022-08-12T11:08:35.193Z,25.9
2022-08-12T11:08:36.209Z,25.9
2022-08-12T11:09:01.666Z,26
2022-08-12T11:10:02.814Z,25.9
2022-08-12T11:11:02.223Z,25.8
2022-08-12T11:12:36.017Z,25.7
2022-08-12T11:13:02.385Z,25.7
2022-08-12T11:14:00.929Z,25.6
2022-08-12T11:15:00.603Z,25.6
2022-08-12T11:16:03.296Z,25.6
2022-08-12T11:17:33.552Z,25.6
2022-08-12T11:18:03.179Z,25.6
2022-08-12T11:19:02.973Z,25.6
2022-08-12T11:20:02.105Z,25.7
2022-08-12T11:21:01.200Z,25.7
2022-08-12T11:22:01.280Z,25.8
2022-08-12T11:23:03.821Z,25.8
2022-08-12T11:24:02.338Z,25.9
2022-08-12T11:25:01.116Z,25.9
2022-08-12T11:26:05.436Z,25.9
2022-08-12T11:27:01.078Z,25.9
2022-08-12T11:28:00.883Z,25.9
2022-08-12T11:29:05.975Z,25.8
2022-08-12T11:30:05.297Z,25.8
2022-08-12T11:31:00.784Z,25.8
2022-08-12T11:32:02.875Z,25.7
2022-08-12T11:33:01.213Z,25.7
2022-08-12T11:34:05.049Z,25.7
2022-08-12T11:35:01.707Z,25.7
2022-08-12T11:36:01.343Z,25.7
2022-08-12T11:37:01.351Z,25.8
2022-08-12T11:38:01.750Z,25.8
2022-08-12T11:39:05.165Z,25.8
2022-08-12T11:40:00.540Z,25.9
2022-08-12T11:41:00.297Z,26
2022-08-12T11:42:01.132Z,26
2022-08-12T11:43:18.873Z,26.1
2022-08-12T11:44:02.043Z,26.1
2022-08-12T11:45:00.851Z,26.1
2022-08-12T11:46:01.667Z,26.1
2022-08-12T11:47:01.215Z,26.1
2022-08-12T11:48:01.387Z,26.1
2022-08-12T11:49:00.717Z,26
2022-08-12T11:50:01.314Z,26
2022-08-12T11:51:01.466Z,26
2022-08-12T11:52:00.772Z,26
2022-08-12T11:53:00.493Z,26
2022-08-12T11:54:01.491Z,26
2022-08-12T11:55:01.105Z,26.1
2022-08-12T11:56:00.851Z,26.3
2022-08-12T11:57:02.313Z,26.4
2022-08-12T11:58:34.129Z,26.5
2022-08-12T12:02:04.898Z,26.6
2022-08-12T12:03:01.226Z,26.5
2022-08-12T12:04:01.096Z,26.6
2022-08-12T12:05:00.982Z,26.6
2022-08-12T12:06:01.219Z,26.6
2022-08-12T12:07:07.511Z,26.5
2022-08-12T12:08:38.801Z,26.5
2022-08-12T12:09:00.928Z,26.6
2022-08-12T12:10:00.713Z,26.6
2022-08-12T12:11:00.406Z,26.6
2022-08-12T12:12:00.381Z,26.6
2022-08-12T12:13:01.132Z,26.6
2022-08-12T12:14:07.443Z,26.6
2022-08-12T12:15:06.613Z,26.6
2022-08-12T12:16:01.161Z,26.7
2022-08-12T12:17:01.203Z,26.8
2022-08-12T12:18:00.963Z,26.8
2022-08-12T12:19:00.674Z,26.8
2022-08-12T12:20:00.671Z,26.8
2022-08-12T12:21:00.374Z,26.8
2022-08-12T12:22:00.689Z,26.9
2022-08-12T12:23:00.434Z,26.9
2022-08-12T12:24:01.014Z,27
2022-08-12T12:25:13.349Z,27.1
2022-08-12T12:26:08.216Z,27.1
2022-08-12T12:27:01.540Z,27.1
2022-08-12T12:28:06.173Z,27.1
2022-08-12T12:29:01.474Z,27.2
2022-08-12T12:30:17.892Z,27.2
2022-08-12T12:31:01.278Z,27.2
2022-08-12T12:32:08.949Z,27.2
2022-08-12T12:33:04.068Z,27.2
2022-08-12T12:34:00.883Z,27.2
2022-08-12T12:35:13.543Z,27.3
2022-08-12T12:36:18.270Z,27.3
2022-08-12T12:37:01.297Z,27.3
2022-08-12T12:38:12.095Z,27.3
2022-08-12T12:39:01.448Z,27.2
2022-08-12T12:40:01.265Z,27.3
2022-08-12T12:41:02.579Z,27.3
2022-08-12T12:42:54.616Z,27.2
2022-08-12T12:43:09.300Z,27.1
2022-08-12T12:44:04.529Z,27.1
2022-08-12T12:45:01.069Z,27.1
2022-08-12T12:46:00.907Z,27.1
2022-08-12T12:47:00.853Z,27.2
2022-08-12T12:48:13.543Z,27.3
2022-08-12T12:49:00.711Z,27.3
2022-08-12T12:50:00.986Z,27.3
2022-08-12T12:51:00.573Z,27.4
2022-08-12T12:52:18.958Z,27.4
2022-08-12T12:54:05.758Z,27.4
2022-08-12T12:54:07.619Z,27.5
2022-08-12T12:55:01.532Z,27.5
2022-08-12T12:56:00.924Z,27.5
2022-08-12T12:57:01.035Z,27.6
2022-08-12T12:58:01.161Z,27.6
2022-08-12T12:59:01.052Z,27.6
2022-08-12T13:00:00.622Z,27.6
2022-08-12T13:01:04.686Z,27.5
2022-08-12T13:02:01.246Z,27.4
2022-08-12T13:03:00.926Z,27.3
2022-08-12T13:04:02.624Z,27.2
2022-08-12T13:05:00.901Z,27.1
2022-08-12T13:06:01.099Z,27.1
2022-08-12T13:07:00.756Z,27.1
2022-08-12T13:08:01.689Z,27.1
2022-08-12T13:09:02.539Z,27.1
2022-08-12T13:10:02.262Z,27.1
2022-08-12T13:11:01.132Z,27.1
2022-08-12T13:12:00.826Z,27.1
2022-08-12T13:13:01.235Z,27.1
2022-08-12T13:14:08.795Z,27.1
2022-08-12T13:15:01.631Z,27.1
2022-08-12T13:16:00.865Z,27.1
2022-08-12T13:17:00.561Z,27
2022-08-12T13:18:01.990Z,27
2022-08-12T13:19:01.787Z,27
2022-08-12T13:20:01.297Z,27
2022-08-12T13:21:01.091Z,27
2022-08-12T13:22:00.743Z,26.9
2022-08-12T13:23:00.597Z,26.9
2022-08-12T13:24:00.286Z,26.8
2022-08-12T13:25:00.326Z,26.8
2022-08-12T13:26:00.517Z,26.7
2022-08-12T13:27:00.158Z,26.6
2022-08-12T13:28:00.011Z,26.6
2022-08-12T13:28:59.735Z,26.6
2022-08-12T13:30:04.100Z,26.7
2022-08-12T13:31:01.170Z,26.8
2022-08-12T13:32:19.541Z,26.8